createdAt,value
2022-09-15T00:00:33.380Z,17.60
2022-09-15T00:01:33.443Z,13.10
2022-09-15T00:02:33.509Z,11.50
2022-09-15T00:03:33.351Z,16.30
2022-09-15T00:04:33.361Z,20.10
2022-09-15T00:05:33.330Z,12.60
2022-09-15T00:06:33.318Z,18.40
2022-09-15T00:07:33.321Z,17.10
2022-09-15T00:08:33.300Z,18.70
2022-09-15T00:09:33.282Z,19.50
2022-09-15T00:10:33.287Z,20.80
2022-09-15T00:11:33.265Z,14.90
2022-09-15T00:12:33.272Z,15.00
2022-09-15T00:13:33.244Z,18.50
2022-09-15T00:14:33.236Z,16.60
2022-09-15T00:15:33.222Z,17.30
2022-09-15T00:16:33.278Z,21.20
2022-09-15T00:17:33.216Z,15.50
2022-09-15T00:18:33.197Z,19.60
2022-09-15T00:19:33.180Z,20.60
2022-09-15T00:20:33.176Z,15.40
2022-09-15T00:21:33.164Z,20.10
2022-09-15T00:22:33.170Z,23.40
2022-09-15T00:23:33.147Z,18.80
2022-09-15T00:24:33.152Z,23.30
2022-09-15T00:25:33.124Z,22.80
2022-09-15T00:26:33.118Z,18.20
2022-09-15T00:27:33.117Z,22.40
2022-09-15T00:28:33.103Z,18.20
2022-09-15T00:29:33.088Z,21.20
2022-09-15T00:30:33.171Z,18.80
2022-09-15T00:31:33.065Z,27.20
2022-09-15T00:32:33.071Z,21.30
2022-09-15T00:33:33.044Z,24.30
2022-09-15T00:34:33.037Z,29.80
2022-09-15T00:35:33.025Z,30.70
2022-09-15T00:36:33.015Z,24.70
2022-09-15T00:37:33.024Z,23.70
2022-09-15T00:38:32.998Z,20.50
2022-09-15T00:39:32.982Z,15.10
2022-09-15T00:40:33.072Z,22.40
2022-09-15T00:41:32.971Z,25.20
2022-09-15T00:42:32.970Z,19.30
2022-09-15T00:43:32.944Z,22.90
2022-09-15T00:44:32.940Z,20.70
2022-09-15T00:45:32.991Z,22.60
2022-09-15T00:46:32.919Z,24.40
2022-09-15T00:47:32.914Z,19.00
2022-09-15T00:48:32.903Z,17.70
2022-09-15T00:49:32.885Z,19.70
2022-09-15T00:50:32.877Z,20.90
2022-09-15T00:51:32.863Z,21.10
2022-09-15T00:52:38.875Z,23.60
2022-09-15T00:53:32.844Z,20.60
2022-09-15T00:54:32.838Z,18.40
2022-09-15T00:55:32.825Z,17.90
2022-09-15T00:56:32.818Z,17.40
2022-09-15T00:57:32.822Z,22.10
2022-09-15T00:58:32.800Z,17.20
2022-09-15T00:59:32.784Z,19.90
2022-09-15T01:00:32.778Z,20.80
2022-09-15T01:01:32.819Z,21.30
2022-09-15T01:02:32.892Z,21.70
2022-09-15T01:03:32.743Z,16.90
2022-09-15T01:04:32.739Z,19.80
2022-09-15T01:05:32.725Z,17.00
2022-09-15T01:06:32.741Z,24.00
2022-09-15T01:07:32.707Z,17.70
2022-09-15T01:08:32.696Z,20.90
2022-09-15T01:09:32.683Z,18.60
2022-09-15T01:10:32.680Z,27.90
2022-09-15T01:11:32.677Z,18.80
2022-09-15T01:12:32.659Z,16.30
2022-09-15T01:13:32.646Z,17.60
2022-09-15T01:14:32.637Z,23.90
2022-09-15T01:15:32.623Z,19.70
2022-09-15T01:16:32.745Z,16.30
2022-09-15T01:17:32.603Z,16.40
2022-09-15T01:18:32.598Z,16.10
2022-09-15T01:19:32.581Z,21.30
2022-09-15T01:20:32.582Z,19.60
2022-09-15T01:21:32.577Z,20.50
2022-09-15T01:22:32.560Z,18.50
2022-09-15T01:23:32.543Z,28.60
2022-09-15T01:24:32.539Z,21.30
2022-09-15T01:25:32.525Z,21.20
2022-09-15T01:26:32.534Z,20.90
2022-09-15T01:27:42.266Z,18.70
2022-09-15T01:28:32.505Z,18.00
2022-09-15T01:29:32.486Z,19.20
2022-09-15T01:30:32.481Z,16.80
2022-09-15T01:31:32.546Z,19.70
2022-09-15T01:32:32.459Z,14.90
2022-09-15T01:33:32.442Z,22.70
2022-09-15T01:34:32.439Z,20.20
2022-09-15T01:35:32.430Z,18.70
2022-09-15T01:36:32.432Z,19.90
2022-09-15T01:37:32.403Z,20.60
2022-09-15T01:38:32.396Z,21.10
2022-09-15T01:39:32.382Z,23.30
2022-09-15T01:40:32.449Z,21.80
2022-09-15T01:41:32.380Z,18.10
2022-09-15T01:42:32.358Z,18.10
2022-09-15T01:43:32.348Z,25.10
2022-09-15T01:44:32.339Z,23.70
2022-09-15T01:45:32.365Z,16.20
2022-09-15T01:46:32.333Z,22.00
2022-09-15T01:47:32.303Z,19.20
2022-09-15T01:48:32.299Z,18.20
2022-09-15T01:49:32.287Z,19.00
2022-09-15T01:50:32.278Z,21.30
2022-09-15T01:51:32.276Z,21.60
2022-09-15T01:52:32.259Z,19.00
2022-09-15T01:53:32.242Z,19.90
2022-09-15T01:54:32.244Z,16.90
2022-09-15T01:55:32.240Z,22.00
2022-09-15T01:56:32.243Z,17.60
2022-09-15T01:57:32.203Z,19.10
2022-09-15T01:58:32.198Z,15.60
2022-09-15T01:59:32.194Z,14.90
2022-09-15T02:00:32.175Z,20.20
2022-09-15T02:01:32.266Z,15.90
2022-09-15T02:02:32.263Z,20.70
2022-09-15T02:03:32.152Z,21.70
2022-09-15T02:04:32.144Z,17.10
2022-09-15T02:05:32.127Z,19.50
2022-09-15T02:06:32.130Z,18.00
2022-09-15T02:07:32.102Z,17.60
2022-09-15T02:08:32.099Z,15.60
2022-09-15T02:09:32.085Z,24.00
2022-09-15T02:10:32.079Z,17.20
2022-09-15T02:11:32.076Z,17.10
2022-09-15T02:12:32.058Z,13.00
2022-09-15T02:13:32.045Z,17.00
2022-09-15T02:14:32.043Z,18.30
2022-09-15T02:15:32.023Z,16.20
2022-09-15T02:16:32.068Z,24.10
2022-09-15T02:17:32.005Z,15.00
2022-09-15T02:18:32.003Z,19.90
2022-09-15T02:19:31.985Z,19.70
2022-09-15T02:20:31.977Z,18.50
2022-09-15T02:21:31.975Z,15.80
2022-09-15T02:22:31.960Z,24.50
2022-09-15T02:23:31.947Z,20.90
2022-09-15T02:24:31.939Z,16.80
2022-09-15T02:25:31.929Z,23.20
2022-09-15T02:26:31.940Z,12.60
2022-09-15T02:27:31.907Z,17.00
2022-09-15T02:28:31.898Z,17.50
2022-09-15T02:29:31.896Z,15.50
2022-09-15T02:30:31.879Z,20.80
2022-09-15T02:31:31.921Z,15.20
2022-09-15T02:32:31.861Z,15.20
2022-09-15T02:33:31.847Z,15.00
2022-09-15T02:34:31.840Z,16.90
2022-09-15T02:35:31.825Z,14.10
2022-09-15T02:36:31.838Z,14.50
2022-09-15T02:37:31.803Z,13.80
2022-09-15T02:38:31.808Z,16.00
2022-09-15T02:39:31.785Z,18.60
2022-09-15T02:40:31.849Z,16.30
2022-09-15T02:41:31.786Z,16.70
2022-09-15T02:42:31.760Z,21.90
2022-09-15T02:43:31.749Z,19.00
2022-09-15T02:44:31.743Z,17.20
2022-09-15T02:45:31.834Z,18.80
2022-09-15T02:46:31.720Z,17.20
2022-09-15T02:47:31.716Z,14.20
2022-09-15T02:48:31.697Z,17.90
2022-09-15T02:49:31.681Z,19.00
2022-09-15T02:50:31.679Z,18.30
2022-09-15T02:51:31.665Z,18.90
2022-09-15T02:52:31.671Z,15.50
2022-09-15T02:53:31.652Z,19.20
2022-09-15T02:54:31.635Z,16.20
2022-09-15T02:55:31.638Z,17.80
2022-09-15T02:56:31.635Z,14.80
2022-09-15T02:57:31.613Z,22.30
2022-09-15T02:58:31.603Z,19.00
2022-09-15T02:59:31.590Z,18.90
2022-09-15T03:00:31.673Z,19.80
2022-09-15T03:01:31.564Z,11.40
2022-09-15T03:02:31.712Z,23.30
2022-09-15T03:03:31.562Z,20.00
2022-09-15T03:04:31.545Z,21.30
2022-09-15T03:05:31.526Z,15.90
2022-09-15T03:06:31.529Z,24.70
2022-09-15T03:07:31.514Z,13.20
2022-09-15T03:08:31.497Z,15.80
2022-09-15T03:09:31.489Z,18.80
2022-09-15T03:10:31.480Z,16.10
2022-09-15T03:11:31.464Z,16.30
2022-09-15T03:12:31.473Z,17.10
2022-09-15T03:13:31.446Z,17.60
2022-09-15T03:14:31.441Z,14.70
2022-09-15T03:15:31.426Z,16.00
2022-09-15T03:16:31.433Z,16.70
2022-09-15T03:17:31.420Z,15.60
2022-09-15T03:18:31.399Z,15.10
2022-09-15T03:19:31.384Z,12.50
2022-09-15T03:20:31.384Z,17.70
2022-09-15T03:21:31.366Z,15.30
2022-09-15T03:22:31.380Z,18.20
2022-09-15T03:23:31.344Z,17.40
2022-09-15T03:24:31.370Z,17.00
2022-09-15T03:25:31.322Z,16.50
2022-09-15T03:26:31.324Z,19.90
2022-09-15T03:27:31.312Z,15.30
2022-09-15T03:28:31.298Z,17.50
2022-09-15T03:29:31.307Z,21.80
2022-09-15T03:30:31.279Z,13.60
2022-09-15T03:31:31.333Z,17.90
2022-09-15T03:32:31.275Z,17.20
2022-09-15T03:33:31.250Z,19.40
2022-09-15T03:34:31.238Z,20.20
2022-09-15T03:35:31.233Z,18.30
2022-09-15T03:36:31.218Z,22.10
2022-09-15T03:37:31.221Z,18.40
2022-09-15T03:38:31.202Z,19.30
2022-09-15T03:39:31.185Z,18.00
2022-09-15T03:40:31.257Z,12.40
2022-09-15T03:41:31.164Z,23.40
2022-09-15T03:42:31.170Z,16.70
2022-09-15T03:43:31.148Z,19.30
2022-09-15T03:44:31.139Z,16.10
2022-09-15T03:45:31.173Z,19.80
2022-09-15T03:46:31.141Z,15.70
2022-09-15T03:47:31.120Z,19.70
2022-09-15T03:48:31.100Z,19.00
2022-09-15T03:49:31.092Z,19.20
2022-09-15T03:50:31.078Z,17.70
2022-09-15T03:51:31.066Z,16.00
2022-09-15T03:52:31.068Z,14.70
2022-09-15T03:53:31.047Z,18.80
2022-09-15T03:54:31.040Z,20.40
2022-09-15T03:55:31.024Z,14.30
2022-09-15T03:56:31.018Z,16.60
2022-09-15T03:57:31.017Z,18.70
2022-09-15T03:58:31.078Z,22.10
2022-09-15T03:59:30.983Z,21.30
2022-09-15T04:00:31.052Z,16.80
2022-09-15T04:01:31.040Z,21.50
2022-09-15T04:02:30.982Z,16.40
2022-09-15T04:03:30.953Z,23.00
2022-09-15T04:04:30.957Z,11.70
2022-09-15T04:05:30.924Z,19.80
2022-09-15T04:06:30.932Z,20.90
2022-09-15T04:07:30.905Z,18.90
2022-09-15T04:08:30.898Z,17.30
2022-09-15T04:09:30.885Z,22.00
2022-09-15T04:10:30.890Z,17.00
2022-09-15T04:11:30.877Z,20.80
2022-09-15T04:12:30.876Z,16.90
2022-09-15T04:13:30.844Z,21.60
2022-09-15T04:14:30.839Z,22.00
2022-09-15T04:15:30.825Z,17.80
2022-09-15T04:16:30.868Z,19.90
2022-09-15T04:17:30.804Z,18.10
2022-09-15T04:18:30.799Z,23.10
2022-09-15T04:19:30.788Z,19.30
2022-09-15T04:20:30.772Z,18.00
2022-09-15T04:21:30.780Z,20.90
2022-09-15T04:22:30.754Z,16.30
2022-09-15T04:23:30.751Z,18.00
2022-09-15T04:24:30.733Z,11.30
2022-09-15T04:25:30.730Z,19.10
2022-09-15T04:26:30.714Z,18.30
2022-09-15T04:27:30.720Z,18.00
2022-09-15T04:28:30.702Z,16.30
2022-09-15T04:29:30.688Z,17.70
2022-09-15T04:30:30.674Z,22.80
2022-09-15T04:31:30.777Z,19.50
2022-09-15T04:32:30.670Z,20.80
2022-09-15T04:33:30.650Z,16.40
2022-09-15T04:34:30.645Z,12.60
2022-09-15T04:35:30.640Z,18.90
2022-09-15T04:36:30.623Z,14.80
2022-09-15T04:37:30.620Z,14.30
2022-09-15T04:38:30.612Z,14.70
2022-09-15T04:39:30.592Z,18.40
2022-09-15T04:40:30.610Z,18.70
2022-09-15T04:41:30.568Z,17.20
2022-09-15T04:42:30.575Z,17.80
2022-09-15T04:43:30.559Z,17.80
2022-09-15T04:44:30.534Z,15.60
2022-09-15T04:45:30.532Z,19.90
2022-09-15T04:46:30.550Z,16.40
2022-09-15T04:47:30.527Z,16.00
2022-09-15T04:48:30.498Z,18.60
2022-09-15T04:49:30.489Z,14.70
2022-09-15T04:50:30.500Z,17.70
2022-09-15T04:51:30.469Z,16.70
2022-09-15T04:52:30.478Z,17.70
2022-09-15T04:53:30.454Z,18.60
2022-09-15T04:54:30.436Z,18.80
2022-09-15T04:55:30.427Z,13.50
2022-09-15T04:56:30.414Z,17.40
2022-09-15T04:57:30.421Z,27.90
2022-09-15T04:58:30.395Z,21.40
2022-09-15T04:59:30.389Z,18.00
2022-09-15T05:00:30.556Z,23.10
2022-09-15T05:01:30.385Z,26.20
2022-09-15T05:02:30.491Z,20.60
2022-09-15T05:03:30.355Z,33.50
2022-09-15T05:04:30.339Z,16.80
2022-09-15T05:05:30.327Z,14.70
2022-09-15T05:06:30.315Z,19.90
2022-09-15T05:07:30.327Z,19.00
2022-09-15T05:08:30.316Z,24.40
2022-09-15T05:09:30.298Z,22.50
2022-09-15T05:10:30.284Z,21.00
2022-09-15T05:11:30.282Z,19.00
2022-09-15T05:12:30.276Z,28.70
2022-09-15T05:13:30.248Z,23.80
2022-09-15T05:14:30.235Z,21.40
2022-09-15T05:15:30.232Z,25.30
2022-09-15T05:16:30.286Z,16.90
2022-09-15T05:17:30.225Z,21.00
2022-09-15T05:18:30.194Z,26.00
2022-09-15T05:19:30.339Z,21.40
2022-09-15T05:20:30.177Z,24.70
2022-09-15T05:21:30.167Z,18.50
2022-09-15T05:22:30.169Z,20.20
2022-09-15T05:23:30.152Z,24.00
2022-09-15T05:24:30.135Z,17.50
2022-09-15T05:25:30.135Z,16.60
2022-09-15T05:26:30.137Z,17.40
2022-09-15T05:27:30.123Z,16.50
2022-09-15T05:28:30.097Z,20.70
2022-09-15T05:29:30.090Z,20.40
2022-09-15T05:30:38.565Z,12.90
2022-09-15T05:31:30.178Z,20.80
2022-09-15T05:32:30.054Z,17.40
2022-09-15T05:33:30.051Z,13.20
2022-09-15T05:34:30.034Z,21.30
2022-09-15T05:35:30.028Z,24.80
2022-09-15T05:36:30.032Z,22.30
2022-09-15T05:37:30.011Z,15.70
2022-09-15T05:38:29.995Z,19.60
2022-09-15T05:39:29.989Z,22.50
2022-09-15T05:40:30.018Z,17.50
2022-09-15T05:41:29.973Z,14.50
2022-09-15T05:42:29.968Z,15.60
2022-09-15T05:43:29.949Z,22.50
2022-09-15T05:44:29.939Z,20.00
2022-09-15T05:45:29.929Z,16.10
2022-09-15T05:46:29.946Z,15.10
2022-09-15T05:47:29.911Z,21.30
2022-09-15T05:48:29.895Z,17.10
2022-09-15T05:49:29.891Z,18.30
2022-09-15T05:50:29.877Z,15.80
2022-09-15T05:51:29.883Z,15.60
2022-09-15T05:52:29.855Z,14.10
2022-09-15T05:53:29.849Z,20.80
2022-09-15T05:54:29.835Z,23.10
2022-09-15T05:55:29.830Z,12.20
2022-09-15T05:56:29.832Z,15.20
2022-09-15T05:57:29.811Z,18.80
2022-09-15T05:58:29.795Z,17.90
2022-09-15T05:59:29.791Z,18.00
2022-09-15T06:00:29.774Z,16.70
2022-09-15T06:01:29.886Z,16.80
2022-09-15T06:02:29.791Z,20.80
2022-09-15T06:03:31.082Z,20.70
2022-09-15T06:04:29.736Z,15.80
2022-09-15T06:05:29.730Z,17.70
2022-09-15T06:06:29.726Z,16.40
2022-09-15T06:07:29.711Z,11.80
2022-09-15T06:08:29.696Z,17.00
2022-09-15T06:09:29.691Z,11.40
2022-09-15T06:10:29.679Z,13.70
2022-09-15T06:11:29.681Z,13.00
2022-09-15T06:12:29.656Z,16.30
2022-09-15T06:13:29.649Z,14.30
2022-09-15T06:14:29.634Z,21.80
2022-09-15T06:15:29.631Z,15.90
2022-09-15T06:16:29.663Z,17.50
2022-09-15T06:17:29.610Z,16.70
2022-09-15T06:18:29.597Z,15.40
2022-09-15T06:19:29.599Z,10.40
2022-09-15T06:20:29.576Z,16.70
2022-09-15T06:21:29.590Z,15.60
2022-09-15T06:22:29.557Z,14.70
2022-09-15T06:23:29.551Z,17.70
2022-09-15T06:24:29.535Z,20.00
2022-09-15T06:25:29.533Z,12.00
2022-09-15T06:26:29.535Z,16.20
2022-09-15T06:27:29.514Z,10.60
2022-09-15T06:28:29.493Z,13.10
2022-09-15T06:29:29.489Z,18.70
2022-09-15T06:30:29.498Z,13.60
2022-09-15T06:31:29.526Z,13.60
2022-09-15T06:32:29.473Z,13.80
2022-09-15T06:33:29.451Z,16.40
2022-09-15T06:34:29.476Z,17.20
2022-09-15T06:35:29.428Z,14.90
2022-09-15T06:36:29.431Z,12.00
2022-09-15T06:37:29.408Z,18.40
2022-09-15T06:38:29.396Z,12.70
2022-09-15T06:39:29.390Z,14.10
2022-09-15T06:40:29.455Z,15.30
2022-09-15T06:41:47.018Z,14.00
2022-09-15T06:42:29.364Z,14.20
2022-09-15T06:43:29.352Z,29.50
2022-09-15T06:44:29.335Z,16.00
2022-09-15T06:45:29.329Z,11.20
2022-09-15T06:46:29.414Z,11.10
2022-09-15T06:47:29.324Z,15.40
2022-09-15T06:48:29.295Z,15.90
2022-09-15T06:49:29.293Z,11.20
2022-09-15T06:50:29.274Z,14.40
2022-09-15T06:51:29.299Z,13.50
2022-09-15T06:52:35.274Z,14.40
2022-09-15T06:53:29.263Z,15.60
2022-09-15T06:54:29.261Z,11.30
2022-09-15T06:55:29.242Z,12.10
2022-09-15T06:56:29.228Z,9.30
2022-09-15T06:57:29.217Z,12.00
2022-09-15T06:58:29.195Z,13.00
2022-09-15T06:59:29.192Z,10.50
2022-09-15T07:00:29.178Z,11.10
2022-09-15T07:01:29.182Z,10.50
2022-09-15T07:02:29.318Z,10.40
2022-09-15T07:03:29.351Z,12.30
2022-09-15T07:04:29.136Z,8.80
2022-09-15T07:05:29.131Z,13.70
2022-09-15T07:06:29.141Z,11.50
2022-09-15T07:07:29.129Z,10.40
2022-09-15T07:08:29.096Z,11.00
2022-09-15T07:09:29.089Z,10.10
2022-09-15T07:10:29.074Z,15.10
2022-09-15T07:11:29.069Z,21.40
2022-09-15T07:12:29.077Z,15.60
2022-09-15T07:13:29.054Z,9.20
2022-09-15T07:14:29.037Z,10.60
2022-09-15T07:15:29.029Z,16.00
2022-09-15T07:16:29.094Z,8.90
2022-09-15T07:17:29.025Z,16.80
2022-09-15T07:18:28.995Z,11.10
2022-09-15T07:19:28.990Z,10.20
2022-09-15T07:20:28.980Z,10.40
2022-09-15T07:21:28.982Z,12.40
2022-09-15T07:22:28.975Z,11.70
2022-09-15T07:23:28.951Z,10.80
2022-09-15T07:24:28.935Z,11.30
2022-09-15T07:25:28.929Z,11.90
2022-09-15T07:26:28.924Z,13.60
2022-09-15T07:27:28.909Z,11.80
2022-09-15T07:28:28.896Z,13.00
2022-09-15T07:29:28.913Z,14.20
2022-09-15T07:30:28.880Z,11.50
2022-09-15T07:31:28.930Z,9.70
2022-09-15T07:32:28.856Z,14.50
2022-09-15T07:33:28.848Z,9.10
2022-09-15T07:34:28.832Z,11.60
2022-09-15T07:35:28.834Z,7.90
2022-09-15T07:36:28.831Z,8.50
2022-09-15T07:37:28.813Z,8.40
2022-09-15T07:38:28.795Z,10.00
2022-09-15T07:39:28.791Z,11.00
2022-09-15T07:40:28.906Z,8.80
2022-09-15T07:41:28.783Z,9.30
2022-09-15T07:42:32.171Z,9.80
2022-09-15T07:43:28.757Z,9.20
2022-09-15T07:44:28.739Z,8.10
2022-09-15T07:45:28.775Z,9.10
2022-09-15T07:46:28.745Z,12.70
2022-09-15T07:47:28.711Z,8.90
2022-09-15T07:48:28.696Z,9.70
2022-09-15T07:49:28.692Z,10.70
2022-09-15T07:50:28.682Z,17.00
2022-09-15T07:51:28.682Z,9.30
2022-09-15T07:52:28.656Z,7.10
2022-09-15T07:53:28.655Z,7.00
2022-09-15T07:54:28.633Z,10.60
2022-09-15T07:55:28.631Z,8.30
2022-09-15T07:56:28.626Z,9.80
2022-09-15T07:57:28.610Z,8.30
2022-09-15T07:58:28.596Z,12.10
2022-09-15T07:59:28.590Z,12.20
2022-09-15T08:00:28.649Z,7.90
2022-09-15T08:01:28.693Z,10.00
2022-09-15T08:02:28.593Z,11.80
2022-09-15T08:03:28.566Z,10.00
2022-09-15T08:04:28.537Z,10.00
2022-09-15T08:05:28.540Z,18.80
2022-09-15T08:06:28.532Z,9.00
2022-09-15T08:07:28.512Z,8.30
2022-09-15T08:08:28.498Z,8.70
2022-09-15T08:09:28.493Z,9.10
2022-09-15T08:10:28.481Z,9.20
2022-09-15T08:11:28.488Z,11.50
2022-09-15T08:12:28.520Z,12.70
2022-09-15T08:13:28.453Z,9.00
2022-09-15T08:14:28.437Z,15.70
2022-09-15T08:15:28.430Z,12.40
2022-09-15T08:16:28.476Z,10.10
2022-09-15T08:17:28.522Z,12.30
2022-09-15T08:18:28.398Z,20.00
2022-09-15T08:19:28.393Z,11.90
2022-09-15T08:20:28.375Z,15.80
2022-09-15T08:21:28.383Z,10.00
2022-09-15T08:22:28.378Z,10.20
2022-09-15T08:23:28.354Z,16.80
2022-09-15T08:24:28.336Z,9.90
2022-09-15T08:25:28.331Z,18.40
2022-09-15T08:26:28.334Z,8.70
2022-09-15T08:27:28.314Z,12.10
2022-09-15T08:28:28.293Z,8.70
2022-09-15T08:29:28.314Z,5.60
2022-09-15T08:30:28.282Z,9.80
2022-09-15T08:31:28.359Z,10.70
2022-09-15T08:32:28.283Z,10.20
2022-09-15T08:33:28.256Z,13.50
2022-09-15T08:34:28.240Z,8.90
2022-09-15T08:35:28.241Z,8.60
2022-09-15T08:36:28.460Z,8.30
2022-09-15T08:37:28.259Z,9.00
2022-09-15T08:38:28.202Z,11.30
2022-09-15T08:39:28.184Z,8.90
2022-09-15T08:40:28.205Z,13.20
2022-09-15T08:41:28.181Z,10.60
2022-09-15T08:42:28.240Z,9.10
2022-09-15T08:43:28.146Z,16.60
2022-09-15T08:44:28.140Z,10.10
2022-09-15T08:45:28.127Z,13.60
2022-09-15T08:46:28.188Z,9.90
2022-09-15T08:47:28.106Z,14.70
2022-09-15T08:48:28.101Z,7.40
2022-09-15T08:49:49.904Z,12.60
2022-09-15T08:50:28.085Z,15.40
2022-09-15T08:51:28.080Z,10.50
2022-09-15T08:52:28.060Z,8.40
2022-09-15T08:53:28.046Z,11.70
2022-09-15T08:54:28.042Z,9.80
2022-09-15T08:55:28.027Z,9.90
2022-09-15T08:56:28.022Z,9.40
2022-09-15T08:57:28.021Z,11.00
2022-09-15T08:58:28.003Z,10.20
2022-09-15T08:59:27.987Z,9.60
2022-09-15T09:00:27.979Z,15.30
2022-09-15T09:01:28.034Z,8.00
2022-09-15T09:02:28.226Z,9.80
2022-09-15T09:03:27.946Z,7.80
2022-09-15T09:04:27.945Z,8.40
2022-09-15T09:05:27.933Z,10.20
2022-09-15T09:06:27.936Z,9.60
2022-09-15T09:07:27.906Z,9.20
2022-09-15T09:08:27.901Z,9.80
2022-09-15T09:09:27.886Z,8.60
2022-09-15T09:10:27.881Z,7.30
2022-09-15T09:11:27.869Z,10.40
2022-09-15T09:12:27.874Z,9.90
2022-09-15T09:13:29.994Z,7.20
2022-09-15T09:14:27.851Z,16.10
2022-09-15T09:15:27.894Z,7.80
2022-09-15T09:16:27.820Z,7.00
2022-09-15T09:17:27.819Z,9.20
2022-09-15T09:18:27.837Z,7.10
2022-09-15T09:19:31.879Z,9.00
2022-09-15T09:20:27.779Z,10.60
2022-09-15T09:21:27.769Z,11.70
2022-09-15T09:22:27.779Z,8.80
2022-09-15T09:23:27.745Z,8.00
2022-09-15T09:24:27.759Z,8.00
2022-09-15T09:25:28.527Z,8.60
2022-09-15T09:26:27.720Z,11.60
2022-09-15T09:27:27.719Z,10.60
2022-09-15T09:28:27.703Z,8.80
2022-09-15T09:29:27.687Z,8.30
2022-09-15T09:30:27.700Z,7.70
2022-09-15T09:31:27.747Z,11.40
2022-09-15T09:32:27.680Z,10.00
2022-09-15T09:33:27.647Z,12.00
2022-09-15T09:34:27.641Z,11.40
2022-09-15T09:35:27.632Z,9.80
2022-09-15T09:36:27.623Z,11.30
2022-09-15T09:37:27.619Z,8.40
2022-09-15T09:38:27.600Z,10.40
2022-09-15T09:39:27.589Z,11.10
2022-09-15T09:40:27.719Z,12.10
2022-09-15T09:41:27.593Z,7.10
2022-09-15T09:42:27.576Z,8.20
2022-09-15T09:43:27.571Z,12.20
2022-09-15T09:44:27.539Z,7.80
2022-09-15T09:45:27.528Z,7.80
2022-09-15T09:46:27.734Z,9.40
2022-09-15T09:47:27.520Z,11.60
2022-09-15T09:48:27.513Z,10.50
2022-09-15T09:49:27.491Z,10.00
2022-09-15T09:50:27.482Z,9.50
2022-09-15T09:51:27.497Z,14.30
2022-09-15T09:52:27.473Z,11.70
2022-09-15T09:53:27.472Z,13.10
2022-09-15T09:54:27.456Z,9.20
2022-09-15T09:55:27.429Z,11.00
2022-09-15T09:56:27.423Z,7.40
2022-09-15T09:57:27.438Z,9.70
2022-09-15T09:58:27.402Z,9.80
2022-09-15T09:59:27.387Z,9.00
2022-09-15T10:00:27.381Z,8.30
2022-09-15T10:01:27.458Z,9.20
2022-09-15T10:02:27.377Z,9.10
2022-09-15T10:03:32.665Z,9.50
2022-09-15T10:04:27.388Z,8.90
2022-09-15T10:05:27.324Z,10.30
2022-09-15T10:06:27.343Z,9.20
2022-09-15T10:07:27.328Z,7.30
2022-09-15T10:08:27.301Z,9.40
2022-09-15T10:09:32.608Z,8.00
2022-09-15T10:10:27.287Z,8.90
2022-09-15T10:11:27.265Z,9.10
2022-09-15T10:12:27.268Z,7.50
2022-09-15T10:13:27.261Z,13.20
2022-09-15T10:14:27.243Z,6.10
2022-09-15T10:15:27.226Z,7.30
2022-09-15T10:16:27.260Z,10.60
2022-09-15T10:17:27.308Z,8.90
2022-09-15T10:18:27.213Z,12.70
2022-09-15T10:19:27.186Z,8.40
2022-09-15T10:20:27.183Z,7.00
2022-09-15T10:21:27.166Z,9.60
2022-09-15T10:22:27.163Z,9.50
2022-09-15T10:23:27.166Z,8.30
2022-09-15T10:24:27.146Z,10.50
2022-09-15T10:25:39.530Z,6.20
2022-09-15T10:26:27.127Z,4.00
2022-09-15T10:27:27.107Z,6.70
2022-09-15T10:28:27.114Z,7.50
2022-09-15T10:29:27.088Z,4.00
2022-09-15T10:30:27.123Z,7.80
2022-09-15T10:31:27.121Z,5.10
2022-09-15T10:32:27.126Z,8.50
2022-09-15T10:33:27.061Z,3.30
2022-09-15T10:34:27.039Z,8.40
2022-09-15T10:35:27.028Z,4.20
2022-09-15T10:36:27.019Z,4.30
2022-09-15T10:37:27.012Z,4.30
2022-09-15T10:38:27.013Z,5.00
2022-09-15T10:39:26.988Z,2.60
2022-09-15T10:40:27.054Z,2.10
2022-09-15T10:41:26.972Z,3.80
2022-09-15T10:42:26.963Z,4.60
2022-09-15T10:43:26.961Z,3.80
2022-09-15T10:44:26.939Z,9.60
2022-09-15T10:45:26.975Z,5.60
2022-09-15T10:46:26.921Z,5.90
2022-09-15T10:47:26.907Z,5.20
2022-09-15T10:48:26.914Z,6.10
2022-09-15T10:49:26.886Z,4.60
2022-09-15T10:50:26.882Z,7.10
2022-09-15T10:51:26.880Z,2.80
2022-09-15T10:52:26.865Z,4.30
2022-09-15T10:53:26.873Z,3.50
2022-09-15T10:54:26.841Z,1.70
2022-09-15T10:55:42.548Z,4.00
2022-09-15T10:56:26.828Z,3.80
2022-09-15T10:58:26.799Z,1.60
2022-09-15T10:59:26.801Z,3.00
2022-09-15T11:00:26.781Z,1.60
2022-09-15T11:01:26.769Z,1.70
2022-09-15T11:02:26.788Z,2.70
2022-09-15T11:03:26.747Z,2.90
2022-09-15T11:04:26.754Z,1.60
2022-09-15T11:05:26.727Z,1.80
2022-09-15T11:06:26.725Z,3.20
2022-09-15T11:07:26.717Z,1.60
2022-09-15T11:08:26.722Z,1.60
2022-09-15T11:09:26.689Z,6.00
2022-09-15T11:10:26.691Z,5.20
2022-09-15T11:11:26.671Z,9.10
2022-09-15T11:12:29.278Z,3.00
2022-09-15T11:13:26.648Z,3.90
2022-09-15T11:14:26.669Z,2.60
2022-09-15T11:15:26.627Z,3.10
2022-09-15T11:16:26.668Z,10.70
2022-09-15T11:17:26.609Z,2.80
2022-09-15T11:18:26.601Z,6.90
2022-09-15T11:19:26.600Z,5.50
2022-09-15T11:20:26.578Z,5.40
2022-09-15T11:21:26.569Z,5.40
2022-09-15T11:22:26.561Z,2.20
2022-09-15T11:23:26.545Z,1.70
2022-09-15T11:24:26.552Z,1.50
2022-09-15T11:25:26.526Z,2.80
2022-09-15T11:26:26.519Z,5.00
2022-09-15T11:27:26.507Z,2.70
2022-09-15T11:28:26.502Z,4.50
2022-09-15T11:29:26.502Z,1.60
2022-09-15T11:30:26.479Z,4.10
2022-09-15T11:31:26.567Z,4.00
2022-09-15T11:32:26.461Z,4.70
2022-09-15T11:33:26.450Z,4.50
2022-09-15T11:34:26.458Z,4.50
2022-09-15T11:35:26.435Z,3.70
2022-09-15T11:36:26.425Z,7.50
2022-09-15T11:37:26.407Z,6.80
2022-09-15T11:38:26.403Z,2.10
2022-09-15T11:39:26.399Z,3.10
2022-09-15T11:40:26.465Z,1.60
2022-09-15T11:41:26.366Z,2.90
2022-09-15T11:42:26.361Z,3.50
2022-09-15T11:43:26.346Z,2.10
2022-09-15T11:44:26.361Z,2.50
2022-09-15T11:45:26.330Z,3.40
2022-09-15T11:46:26.349Z,1.30
2022-09-15T11:47:26.310Z,1.50
2022-09-15T11:48:26.298Z,4.80
2022-09-15T11:49:26.305Z,1.60
2022-09-15T11:50:26.947Z,2.40
2022-09-15T11:51:26.268Z,3.10
2022-09-15T11:52:26.261Z,3.00
2022-09-15T11:53:26.250Z,1.60
2022-09-15T11:54:28.199Z,4.80
2022-09-15T11:55:26.230Z,2.30
2022-09-15T11:56:26.222Z,1.40
2022-09-15T11:57:26.211Z,1.90
2022-09-15T11:58:26.231Z,2.50
2022-09-15T11:59:26.198Z,1.70
2022-09-15T12:00:26.183Z,1.30
2022-09-15T12:01:26.167Z,2.10
2022-09-15T12:02:26.284Z,2.80
2022-09-15T12:03:26.147Z,5.80
2022-09-15T12:04:26.155Z,1.10
2022-09-15T12:05:26.125Z,3.00
2022-09-15T12:06:26.124Z,3.20
2022-09-15T12:07:26.104Z,1.80
2022-09-15T12:08:26.103Z,1.40
2022-09-15T12:09:26.102Z,3.80
2022-09-15T12:10:26.082Z,1.80
2022-09-15T12:11:26.068Z,1.60
2022-09-15T12:12:30.608Z,1.20
2022-09-15T12:13:26.055Z,3.30
2022-09-15T12:14:26.055Z,1.80
2022-09-15T12:15:26.028Z,1.40
2022-09-15T12:16:26.105Z,2.10
2022-09-15T12:17:26.011Z,6.20
2022-09-15T12:18:43.862Z,1.70
2022-09-15T12:19:26.007Z,3.70
2022-09-15T12:20:25.980Z,3.50
2022-09-15T12:21:25.968Z,4.50
2022-09-15T12:22:25.965Z,4.30
2022-09-15T12:23:25.951Z,1.80
2022-09-15T12:24:25.960Z,3.00
2022-09-15T12:25:25.931Z,4.80
2022-09-15T12:26:25.925Z,2.90
2022-09-15T12:27:25.910Z,2.20
2022-09-15T12:28:25.946Z,3.50
2022-09-15T12:29:25.903Z,3.60
2022-09-15T12:30:25.882Z,11.70
2022-09-15T12:31:25.962Z,1.30
2022-09-15T12:32:25.867Z,1.60
2022-09-15T12:33:25.847Z,5.30
2022-09-15T12:34:25.855Z,3.90
2022-09-15T12:35:25.831Z,2.90
2022-09-15T12:36:25.825Z,1.50
2022-09-15T12:37:25.814Z,2.50
2022-09-15T12:38:25.807Z,4.10
2022-09-15T12:39:25.807Z,2.90
2022-09-15T12:40:25.895Z,2.70
2022-09-15T12:41:25.773Z,2.40
2022-09-15T12:42:25.764Z,2.30
2022-09-15T12:43:25.754Z,3.90
2022-09-15T12:44:25.761Z,2.70
2022-09-15T12:45:25.729Z,2.20
2022-09-15T12:46:25.778Z,3.70
2022-09-15T12:47:25.711Z,4.00
2022-09-15T12:48:25.708Z,3.20
2022-09-15T12:49:25.718Z,2.40
2022-09-15T12:50:25.682Z,5.60
2022-09-15T12:51:25.673Z,4.80
2022-09-15T12:52:25.665Z,1.50
2022-09-15T12:53:31.728Z,1.70
2022-09-15T12:54:27.208Z,1.80
2022-09-15T12:55:25.647Z,2.40
2022-09-15T12:56:25.622Z,6.30
2022-09-15T12:57:25.616Z,5.30
2022-09-15T12:58:25.625Z,3.30
2022-09-15T12:59:25.601Z,6.10
2022-09-15T13:00:25.598Z,4.10
2022-09-15T13:01:25.630Z,3.30
2022-09-15T13:02:25.717Z,3.20